sensor_id;sensor_type;location;lat;lon;timestamp;temperature;humidity
19214;DHT22;9741;51.020;5.304;2023-03-23T00:01:20;14.10;62.00
19214;DHT22;9741;51.020;5.304;2023-03-23T00:03:49;14.10;62.10
19214;DHT22;9741;51.020;5.304;2023-03-23T00:06:18;14.10;62.00
19214;DHT22;9741;51.020;5.304;2023-03-23T00:08:51;14.10;62.00
19214;DHT22;9741;51.020;5.304;2023-03-23T00:11:25;14.10;62.10
19214;DHT22;9741;51.020;5.304;2023-03-23T00:13:56;14.10;62.00
19214;DHT22;9741;51.020;5.304;2023-03-23T00:16:29;14.10;62.10
19214;DHT22;9741;51.020;5.304;2023-03-23T00:19:02;14.10;62.10
19214;DHT22;9741;51.020;5.304;2023-03-23T00:21:32;14.10;62.10
19214;DHT22;9741;51.020;5.304;2023-03-23T00:24:05;14.10;62.10
19214;DHT22;9741;51.020;5.304;2023-03-23T00:26:36;14.10;62.10
19214;DHT22;9741;51.020;5.304;2023-03-23T00:29:09;14.10;62.00
19214;DHT22;9741;51.020;5.304;2023-03-23T00:31:40;14.20;62.10
19214;DHT22;9741;51.020;5.304;2023-03-23T00:34:14;14.20;62.10
19214;DHT22;9741;51.020;5.304;2023-03-23T00:36:45;14.20;62.10
19214;DHT22;9741;51.020;5.304;2023-03-23T00:39:16;14.20;62.00
19214;DHT22;9741;51.020;5.304;2023-03-23T00:41:45;14.30;62.10
19214;DHT22;9741;51.020;5.304;2023-03-23T00:44:13;14.20;61.90
19214;DHT22;9741;51.020;5.304;2023-03-23T00:46:43;14.20;62.00
19214;DHT22;9741;51.020;5.304;2023-03-23T00:49:16;14.20;61.90
19214;DHT22;9741;51.020;5.304;2023-03-23T00:51:44;14.20;62.00
19214;DHT22;9741;51.020;5.304;2023-03-23T00:54:12;14.20;62.00
19214;DHT22;9741;51.020;5.304;2023-03-23T00:56:43;14.20;62.00
19214;DHT22;9741;51.020;5.304;2023-03-23T00:59:11;14.20;62.00
19214;DHT22;9741;51.020;5.304;2023-03-23T01:01:39;14.20;62.00
19214;DHT22;9741;51.020;5.304;2023-03-23T01:04:07;14.20;62.00
19214;DHT22;9741;51.020;5.304;2023-03-23T01:06:36;14.20;62.10
19214;DHT22;9741;51.020;5.304;2023-03-23T01:09:05;14.20;62.10
19214;DHT22;9741;51.020;5.304;2023-03-23T01:11:33;14.20;62.10
19214;DHT22;9741;51.020;5.304;2023-03-23T01:14:04;14.20;62.10
19214;DHT22;9741;51.020;5.304;2023-03-23T01:16:32;14.20;62.10
19214;DHT22;9741;51.020;5.304;2023-03-23T01:18:59;14.20;62.20
19214;DHT22;9741;51.020;5.304;2023-03-23T01:21:26;14.20;62.20
19214;DHT22;9741;51.020;5.304;2023-03-23T01:23:54;14.20;62.20
19214;DHT22;9741;51.020;5.304;2023-03-23T01:26:22;14.20;62.20
19214;DHT22;9741;51.020;5.304;2023-03-23T01:28:50;14.20;62.30
19214;DHT22;9741;51.020;5.304;2023-03-23T01:31:22;14.20;62.30
19214;DHT22;9741;51.020;5.304;2023-03-23T01:33:51;14.20;62.40
19214;DHT22;9741;51.020;5.304;2023-03-23T01:36:21;14.10;62.30
19214;DHT22;9741;51.020;5.304;2023-03-23T01:38:50;14.10;62.30
19214;DHT22;9741;51.020;5.304;2023-03-23T01:41:18;14.10;62.40
19214;DHT22;9741;51.020;5.304;2023-03-23T01:44:04;14.10;62.40
19214;DHT22;9741;51.020;5.304;2023-03-23T01:46:36;14.10;62.50
19214;DHT22;9741;51.020;5.304;2023-03-23T01:49:08;14.10;62.50
19214;DHT22;9741;51.020;5.304;2023-03-23T01:51:42;14.00;62.40
19214;DHT22;9741;51.020;5.304;2023-03-23T01:54:13;14.00;62.50
19214;DHT22;9741;51.020;5.304;2023-03-23T01:56:47;14.10;62.60
19214;DHT22;9741;51.020;5.304;2023-03-23T01:59:20;14.10;62.70
19214;DHT22;9741;51.020;5.304;2023-03-23T02:01:50;14.10;62.70
19214;DHT22;9741;51.020;5.304;2023-03-23T02:04:18;14.10;62.70
19214;DHT22;9741;51.020;5.304;2023-03-23T02:06:48;14.10;62.60
19214;DHT22;9741;51.020;5.304;2023-03-23T02:09:16;14.10;62.70
19214;DHT22;9741;51.020;5.304;2023-03-23T02:11:44;14.10;62.70
19214;DHT22;9741;51.020;5.304;2023-03-23T02:14:16;14.10;62.70
19214;DHT22;9741;51.020;5.304;2023-03-23T02:16:51;14.10;62.70
19214;DHT22;9741;51.020;5.304;2023-03-23T02:19:41;14.10;62.70
19214;DHT22;9741;51.020;5.304;2023-03-23T02:22:28;14.10;62.70
19214;DHT22;9741;51.020;5.304;2023-03-23T02:25:26;14.10;62.80
19214;DHT22;9741;51.020;5.304;2023-03-23T02:34:08;14.00;63.00
19214;DHT22;9741;51.020;5.304;2023-03-23T02:36:40;14.00;63.00
19214;DHT22;9741;51.020;5.304;2023-03-23T02:39:16;13.90;63.00
19214;DHT22;9741;51.020;5.304;2023-03-23T02:41:49;13.90;63.00
19214;DHT22;9741;51.020;5.304;2023-03-23T02:44:18;13.90;63.10
19214;DHT22;9741;51.020;5.304;2023-03-23T02:46:46;13.90;63.10
19214;DHT22;9741;51.020;5.304;2023-03-23T02:49:19;13.90;63.10
19214;DHT22;9741;51.020;5.304;2023-03-23T02:51:48;14.00;63.20
19214;DHT22;9741;51.020;5.304;2023-03-23T02:54:18;14.00;63.20
19214;DHT22;9741;51.020;5.304;2023-03-23T02:56:48;14.00;63.20
19214;DHT22;9741;51.020;5.304;2023-03-23T02:59:18;14.10;63.30
19214;DHT22;9741;51.020;5.304;2023-03-23T03:01:54;14.10;63.20
19214;DHT22;9741;51.020;5.304;2023-03-23T03:04:26;14.10;63.10
19214;DHT22;9741;51.020;5.304;2023-03-23T03:07:06;14.10;63.10
19214;DHT22;9741;51.020;5.304;2023-03-23T03:09:42;14.10;63.00
19214;DHT22;9741;51.020;5.304;2023-03-23T03:12:21;14.20;63.00
19214;DHT22;9741;51.020;5.304;2023-03-23T03:14:57;14.20;62.90
19214;DHT22;9741;51.020;5.304;2023-03-23T03:17:29;14.20;62.90
19214;DHT22;9741;51.020;5.304;2023-03-23T03:20:03;14.20;62.80
19214;DHT22;9741;51.020;5.304;2023-03-23T03:22:38;14.20;62.80
19214;DHT22;9741;51.020;5.304;2023-03-23T03:25:08;14.20;62.70
19214;DHT22;9741;51.020;5.304;2023-03-23T03:27:39;14.20;62.70
19214;DHT22;9741;51.020;5.304;2023-03-23T03:30:11;14.20;62.50
19214;DHT22;9741;51.020;5.304;2023-03-23T03:32:43;14.20;62.50
19214;DHT22;9741;51.020;5.304;2023-03-23T03:35:14;14.30;62.50
19214;DHT22;9741;51.020;5.304;2023-03-23T03:37:45;14.30;62.40
19214;DHT22;9741;51.020;5.304;2023-03-23T03:40:15;14.20;62.30
19214;DHT22;9741;51.020;5.304;2023-03-23T03:42:45;14.20;62.20
19214;DHT22;9741;51.020;5.304;2023-03-23T03:45:15;14.20;62.10
19214;DHT22;9741;51.020;5.304;2023-03-23T03:47:43;14.20;62.10
19214;DHT22;9741;51.020;5.304;2023-03-23T03:50:14;14.20;62.10
19214;DHT22;9741;51.020;5.304;2023-03-23T03:52:42;14.20;62.00
19214;DHT22;9741;51.020;5.304;2023-03-23T03:55:10;14.20;62.00
19214;DHT22;9741;51.020;5.304;2023-03-23T03:57:40;14.20;61.90
19214;DHT22;9741;51.020;5.304;2023-03-23T04:00:09;14.20;61.90
19214;DHT22;9741;51.020;5.304;2023-03-23T04:02:44;14.20;61.90
19214;DHT22;9741;51.020;5.304;2023-03-23T04:05:19;14.10;61.80
19214;DHT22;9741;51.020;5.304;2023-03-23T04:07:48;14.10;61.80
19214;DHT22;9741;51.020;5.304;2023-03-23T04:10:18;14.10;61.80
19214;DHT22;9741;51.020;5.304;2023-03-23T04:12:47;14.10;61.80
19214;DHT22;9741;51.020;5.304;2023-03-23T04:15:16;14.10;61.90
19214;DHT22;9741;51.020;5.304;2023-03-23T04:17:44;14.10;61.80
19214;DHT22;9741;51.020;5.304;2023-03-23T04:20:14;14.10;61.70
19214;DHT22;9741;51.020;5.304;2023-03-23T04:22:45;14.10;61.70
19214;DHT22;9741;51.020;5.304;2023-03-23T04:25:17;14.10;61.70
19214;DHT22;9741;51.020;5.304;2023-03-23T04:27:47;14.10;61.70
19214;DHT22;9741;51.020;5.304;2023-03-23T04:30:19;14.10;61.60
19214;DHT22;9741;51.020;5.304;2023-03-23T04:32:48;14.10;61.60
19214;DHT22;9741;51.020;5.304;2023-03-23T04:35:19;14.10;61.50
19214;DHT22;9741;51.020;5.304;2023-03-23T04:37:49;14.10;61.40
19214;DHT22;9741;51.020;5.304;2023-03-23T04:40:19;14.20;61.50
19214;DHT22;9741;51.020;5.304;2023-03-23T04:42:46;14.10;61.40
19214;DHT22;9741;51.020;5.304;2023-03-23T04:45:17;14.10;61.40
19214;DHT22;9741;51.020;5.304;2023-03-23T04:47:47;14.10;61.30
19214;DHT22;9741;51.020;5.304;2023-03-23T04:50:21;14.10;61.20
19214;DHT22;9741;51.020;5.304;2023-03-23T04:52:51;14.10;61.20
19214;DHT22;9741;51.020;5.304;2023-03-23T04:55:22;14.10;61.20
19214;DHT22;9741;51.020;5.304;2023-03-23T04:57:50;14.10;61.20
19214;DHT22;9741;51.020;5.304;2023-03-23T05:00:22;14.00;61.10
19214;DHT22;9741;51.020;5.304;2023-03-23T05:02:49;14.00;61.10
19214;DHT22;9741;51.020;5.304;2023-03-23T05:05:18;14.00;61.10
19214;DHT22;9741;51.020;5.304;2023-03-23T05:07:46;14.00;61.10
19214;DHT22;9741;51.020;5.304;2023-03-23T05:10:16;14.00;61.10
19214;DHT22;9741;51.020;5.304;2023-03-23T05:12:44;14.00;61.00
19214;DHT22;9741;51.020;5.304;2023-03-23T05:15:14;14.00;61.00
19214;DHT22;9741;51.020;5.304;2023-03-23T05:17:44;14.00;61.00
19214;DHT22;9741;51.020;5.304;2023-03-23T05:20:13;13.90;60.90
19214;DHT22;9741;51.020;5.304;2023-03-23T05:22:41;13.90;60.90
19214;DHT22;9741;51.020;5.304;2023-03-23T05:25:10;13.90;60.90
19214;DHT22;9741;51.020;5.304;2023-03-23T05:27:39;13.90;60.90
19214;DHT22;9741;51.020;5.304;2023-03-23T05:30:09;13.90;60.90
19214;DHT22;9741;51.020;5.304;2023-03-23T05:32:37;13.90;60.90
19214;DHT22;9741;51.020;5.304;2023-03-23T05:35:06;13.90;60.80
19214;DHT22;9741;51.020;5.304;2023-03-23T05:37:33;13.90;60.80
19214;DHT22;9741;51.020;5.304;2023-03-23T05:40:01;13.90;60.70
19214;DHT22;9741;51.020;5.304;2023-03-23T05:42:33;13.90;60.70
19214;DHT22;9741;51.020;5.304;2023-03-23T05:45:07;13.90;60.70
19214;DHT22;9741;51.020;5.304;2023-03-23T05:47:36;14.00;60.80
19214;DHT22;9741;51.020;5.304;2023-03-23T05:50:06;14.00;60.70
19214;DHT22;9741;51.020;5.304;2023-03-23T05:52:37;13.90;60.70
19214;DHT22;9741;51.020;5.304;2023-03-23T05:55:07;13.90;60.60
19214;DHT22;9741;51.020;5.304;2023-03-23T05:57:37;13.90;60.60
19214;DHT22;9741;51.020;5.304;2023-03-23T06:00:08;13.90;60.60
19214;DHT22;9741;51.020;5.304;2023-03-23T06:02:47;13.90;60.60
19214;DHT22;9741;51.020;5.304;2023-03-23T06:05:15;13.90;60.60
19214;DHT22;9741;51.020;5.304;2023-03-23T06:07:42;13.80;60.60
19214;DHT22;9741;51.020;5.304;2023-03-23T06:10:12;13.80;60.60
19214;DHT22;9741;51.020;5.304;2023-03-23T06:12:42;13.90;60.70
19214;DHT22;9741;51.020;5.304;2023-03-23T06:15:13;13.90;60.60
19214;DHT22;9741;51.020;5.304;2023-03-23T06:17:41;13.90;60.60
19214;DHT22;9741;51.020;5.304;2023-03-23T06:20:09;13.90;60.60
19214;DHT22;9741;51.020;5.304;2023-03-23T06:22:40;13.90;60.60
19214;DHT22;9741;51.020;5.304;2023-03-23T06:25:09;13.90;60.50
19214;DHT22;9741;51.020;5.304;2023-03-23T06:27:37;14.00;60.50
19214;DHT22;9741;51.020;5.304;2023-03-23T06:30:09;14.00;60.50
19214;DHT22;9741;51.020;5.304;2023-03-23T06:32:40;14.00;60.50
19214;DHT22;9741;51.020;5.304;2023-03-23T06:35:09;14.00;60.50
19214;DHT22;9741;51.020;5.304;2023-03-23T06:37:38;14.00;60.50
19214;DHT22;9741;51.020;5.304;2023-03-23T06:40:06;14.00;60.50
19214;DHT22;9741;51.020;5.304;2023-03-23T06:42:36;14.00;60.40
19214;DHT22;9741;51.020;5.304;2023-03-23T06:45:05;14.10;60.50
19214;DHT22;9741;51.020;5.304;2023-03-23T06:47:33;14.10;60.40
19214;DHT22;9741;51.020;5.304;2023-03-23T06:50:02;14.10;60.30
19214;DHT22;9741;51.020;5.304;2023-03-23T06:52:30;14.20;60.30
19214;DHT22;9741;51.020;5.304;2023-03-23T06:54:57;14.20;60.20
19214;DHT22;9741;51.020;5.304;2023-03-23T06:57:25;14.20;60.00
19214;DHT22;9741;51.020;5.304;2023-03-23T06:59:52;14.20;60.00
19214;DHT22;9741;51.020;5.304;2023-03-23T07:02:20;14.30;60.00
19214;DHT22;9741;51.020;5.304;2023-03-23T07:04:47;14.30;59.90
19214;DHT22;9741;51.020;5.304;2023-03-23T07:07:18;14.30;59.80
19214;DHT22;9741;51.020;5.304;2023-03-23T07:09:45;14.30;59.80
19214;DHT22;9741;51.020;5.304;2023-03-23T07:12:13;14.30;59.70
19214;DHT22;9741;51.020;5.304;2023-03-23T07:14:41;14.40;59.70
19214;DHT22;9741;51.020;5.304;2023-03-23T07:17:08;14.40;59.60
19214;DHT22;9741;51.020;5.304;2023-03-23T07:19:36;14.50;59.60
19214;DHT22;9741;51.020;5.304;2023-03-23T07:22:07;14.60;59.60
19214;DHT22;9741;51.020;5.304;2023-03-23T07:24:37;14.60;59.50
19214;DHT22;9741;51.020;5.304;2023-03-23T07:27:05;14.60;59.30
19214;DHT22;9741;51.020;5.304;2023-03-23T07:29:33;14.70;59.20
19214;DHT22;9741;51.020;5.304;2023-03-23T07:32:04;14.70;59.20
19214;DHT22;9741;51.020;5.304;2023-03-23T07:34:32;14.80;59.20
19214;DHT22;9741;51.020;5.304;2023-03-23T07:37:00;14.80;59.00
19214;DHT22;9741;51.020;5.304;2023-03-23T07:39:28;14.90;58.80
19214;DHT22;9741;51.020;5.304;2023-03-23T07:42:00;14.90;58.70
19214;DHT22;9741;51.020;5.304;2023-03-23T07:44:28;14.90;58.60
19214;DHT22;9741;51.020;5.304;2023-03-23T07:46:55;14.90;58.50
19214;DHT22;9741;51.020;5.304;2023-03-23T07:49:23;14.90;58.60
19214;DHT22;9741;51.020;5.304;2023-03-23T07:51:53;15.10;58.70
19214;DHT22;9741;51.020;5.304;2023-03-23T07:54:21;15.20;58.60
19214;DHT22;9741;51.020;5.304;2023-03-23T07:56:49;15.20;58.30
19214;DHT22;9741;51.020;5.304;2023-03-23T07:59:17;15.30;58.30
19214;DHT22;9741;51.020;5.304;2023-03-23T08:01:46;15.20;58.20
19214;DHT22;9741;51.020;5.304;2023-03-23T08:04:14;15.20;58.40
19214;DHT22;9741;51.020;5.304;2023-03-23T08:06:45;15.10;58.40
19214;DHT22;9741;51.020;5.304;2023-03-23T08:09:13;15.10;58.40
19214;DHT22;9741;51.020;5.304;2023-03-23T08:11:41;15.00;58.50
19214;DHT22;9741;51.020;5.304;2023-03-23T08:14:09;14.80;58.50
19214;DHT22;9741;51.020;5.304;2023-03-23T08:16:40;14.50;58.20
19214;DHT22;9741;51.020;5.304;2023-03-23T08:19:08;14.10;58.20
19214;DHT22;9741;51.020;5.304;2023-03-23T08:21:36;13.80;58.50
19214;DHT22;9741;51.020;5.304;2023-03-23T08:24:05;13.50;58.80
19214;DHT22;9741;51.020;5.304;2023-03-23T08:26:32;13.20;59.10
19214;DHT22;9741;51.020;5.304;2023-03-23T08:29:01;13.00;59.40
19214;DHT22;9741;51.020;5.304;2023-03-23T08:31:31;12.90;59.80
19214;DHT22;9741;51.020;5.304;2023-03-23T08:34:07;12.80;60.00
19214;DHT22;9741;51.020;5.304;2023-03-23T08:36:35;12.60;60.20
19214;DHT22;9741;51.020;5.304;2023-03-23T08:39:06;12.50;60.30
19214;DHT22;9741;51.020;5.304;2023-03-23T08:41:34;12.40;60.60
19214;DHT22;9741;51.020;5.304;2023-03-23T08:44:03;12.30;60.70
19214;DHT22;9741;51.020;5.304;2023-03-23T08:46:31;12.20;60.90
19214;DHT22;9741;51.020;5.304;2023-03-23T08:48:58;12.20;61.20
19214;DHT22;9741;51.020;5.304;2023-03-23T08:51:27;12.10;61.30
19214;DHT22;9741;51.020;5.304;2023-03-23T08:53:57;12.10;61.50
19214;DHT22;9741;51.020;5.304;2023-03-23T08:56:40;12.00;61.70
19214;DHT22;9741;51.020;5.304;2023-03-23T08:59:07;12.10;61.90
19214;DHT22;9741;51.020;5.304;2023-03-23T09:01:37;12.10;62.00
19214;DHT22;9741;51.020;5.304;2023-03-23T09:04:05;12.20;62.20
19214;DHT22;9741;51.020;5.304;2023-03-23T09:06:34;12.10;62.20
19214;DHT22;9741;51.020;5.304;2023-03-23T09:09:04;12.20;62.30
19214;DHT22;9741;51.020;5.304;2023-03-23T09:11:33;12.30;62.60
19214;DHT22;9741;51.020;5.304;2023-03-23T09:14:02;12.30;62.60
19214;DHT22;9741;51.020;5.304;2023-03-23T09:16:30;12.40;62.80
19214;DHT22;9741;51.020;5.304;2023-03-23T09:18:59;12.40;62.70
19214;DHT22;9741;51.020;5.304;2023-03-23T09:21:28;12.50;62.90
19214;DHT22;9741;51.020;5.304;2023-03-23T09:23:59;12.60;63.10
19214;DHT22;9741;51.020;5.304;2023-03-23T09:26:28;12.70;63.20
19214;DHT22;9741;51.020;5.304;2023-03-23T09:29:09;12.80;63.30
19214;DHT22;9741;51.020;5.304;2023-03-23T09:31:40;12.90;63.40
19214;DHT22;9741;51.020;5.304;2023-03-23T09:34:13;13.10;63.40
19214;DHT22;9741;51.020;5.304;2023-03-23T09:36:41;13.20;63.30
19214;DHT22;9741;51.020;5.304;2023-03-23T09:39:11;13.30;63.20
19214;DHT22;9741;51.020;5.304;2023-03-23T09:42:24;13.40;63.40
19214;DHT22;9741;51.020;5.304;2023-03-23T09:45:06;13.50;63.50
19214;DHT22;9741;51.020;5.304;2023-03-23T09:47:47;13.50;63.40
19214;DHT22;9741;51.020;5.304;2023-03-23T09:50:17;13.50;63.40
19214;DHT22;9741;51.020;5.304;2023-03-23T09:52:49;13.60;63.40
19214;DHT22;9741;51.020;5.304;2023-03-23T09:55:22;13.60;63.50
19214;DHT22;9741;51.020;5.304;2023-03-23T09:57:53;13.70;63.50
19214;DHT22;9741;51.020;5.304;2023-03-23T10:00:26;13.80;63.50
19214;DHT22;9741;51.020;5.304;2023-03-23T10:03:11;13.80;63.40
19214;DHT22;9741;51.020;5.304;2023-03-23T10:05:46;13.90;63.40
19214;DHT22;9741;51.020;5.304;2023-03-23T10:08:20;13.90;63.30
19214;DHT22;9741;51.020;5.304;2023-03-23T10:11:07;13.70;63.10
19214;DHT22;9741;51.020;5.304;2023-03-23T10:13:55;13.70;63.30
19214;DHT22;9741;51.020;5.304;2023-03-23T10:16:28;13.60;63.40
19214;DHT22;9741;51.020;5.304;2023-03-23T10:19:03;13.60;63.50
19214;DHT22;9741;51.020;5.304;2023-03-23T10:21:41;13.80;63.70
19214;DHT22;9741;51.020;5.304;2023-03-23T10:24:15;13.90;63.80
19214;DHT22;9741;51.020;5.304;2023-03-23T10:27:05;14.00;63.80
19214;DHT22;9741;51.020;5.304;2023-03-23T10:29:38;14.10;63.70
19214;DHT22;9741;51.020;5.304;2023-03-23T10:32:11;14.20;63.60
19214;DHT22;9741;51.020;5.304;2023-03-23T10:34:44;14.30;63.70
19214;DHT22;9741;51.020;5.304;2023-03-23T10:37:16;14.40;63.80
19214;DHT22;9741;51.020;5.304;2023-03-23T10:39:50;14.50;63.90
19214;DHT22;9741;51.020;5.304;2023-03-23T10:42:32;14.90;64.10
19214;DHT22;9741;51.020;5.304;2023-03-23T10:45:09;15.10;63.90
19214;DHT22;9741;51.020;5.304;2023-03-23T10:47:44;15.40;63.70
19214;DHT22;9741;51.020;5.304;2023-03-23T10:50:16;15.50;63.40
19214;DHT22;9741;51.020;5.304;2023-03-23T10:52:44;15.60;63.20
19214;DHT22;9741;51.020;5.304;2023-03-23T10:55:16;15.70;63.20
19214;DHT22;9741;51.020;5.304;2023-03-23T10:57:47;15.80;63.00
19214;DHT22;9741;51.020;5.304;2023-03-23T11:00:19;15.90;63.00
19214;DHT22;9741;51.020;5.304;2023-03-23T11:02:59;16.10;63.10
19214;DHT22;9741;51.020;5.304;2023-03-23T11:05:34;16.30;62.90
19214;DHT22;9741;51.020;5.304;2023-03-23T11:08:04;16.40;62.60
19214;DHT22;9741;51.020;5.304;2023-03-23T11:10:39;16.40;62.50
19214;DHT22;9741;51.020;5.304;2023-03-23T11:13:14;16.40;62.30
19214;DHT22;9741;51.020;5.304;2023-03-23T11:15:46;16.30;62.00
19214;DHT22;9741;51.020;5.304;2023-03-23T11:18:21;16.20;62.00
19214;DHT22;9741;51.020;5.304;2023-03-23T11:20:53;16.10;62.00
19214;DHT22;9741;51.020;5.304;2023-03-23T11:23:26;16.10;62.00
19214;DHT22;9741;51.020;5.304;2023-03-23T11:25:57;16.10;62.20
19214;DHT22;9741;51.020;5.304;2023-03-23T11:28:36;16.30;62.30
19214;DHT22;9741;51.020;5.304;2023-03-23T11:31:06;16.50;62.30
19214;DHT22;9741;51.020;5.304;2023-03-23T11:33:47;16.70;62.10
19214;DHT22;9741;51.020;5.304;2023-03-23T11:36:15;16.70;61.80
19214;DHT22;9741;51.020;5.304;2023-03-23T11:38:43;16.80;61.80
19214;DHT22;9741;51.020;5.304;2023-03-23T11:41:16;16.90;61.70
19214;DHT22;9741;51.020;5.304;2023-03-23T11:43:47;17.00;61.50
19214;DHT22;9741;51.020;5.304;2023-03-23T11:46:26;17.20;61.50
19214;DHT22;9741;51.020;5.304;2023-03-23T11:49:04;17.50;61.60
19214;DHT22;9741;51.020;5.304;2023-03-23T11:51:37;17.70;61.60
19214;DHT22;9741;51.020;5.304;2023-03-23T11:54:14;17.90;61.30
19214;DHT22;9741;51.020;5.304;2023-03-23T11:56:44;18.10;61.20
19214;DHT22;9741;51.020;5.304;2023-03-23T11:59:15;18.20;60.80
19214;DHT22;9741;51.020;5.304;2023-03-23T12:01:54;18.30;60.70
19214;DHT22;9741;51.020;5.304;2023-03-23T12:04:55;18.30;60.60
19214;DHT22;9741;51.020;5.304;2023-03-23T12:07:36;18.30;60.60
19214;DHT22;9741;51.020;5.304;2023-03-23T12:10:23;18.40;60.70
19214;DHT22;9741;51.020;5.304;2023-03-23T12:13:01;18.40;60.50
19214;DHT22;9741;51.020;5.304;2023-03-23T12:15:35;18.40;61.10
19214;DHT22;9741;51.020;5.304;2023-03-23T12:18:15;18.40;60.30
19214;DHT22;9741;51.020;5.304;2023-03-23T12:20:54;18.40;60.10
19214;DHT22;9741;51.020;5.304;2023-03-23T12:23:33;18.40;60.10
19214;DHT22;9741;51.020;5.304;2023-03-23T12:26:12;18.40;60.00
19214;DHT22;9741;51.020;5.304;2023-03-23T12:29:04;18.40;59.90
19214;DHT22;9741;51.020;5.304;2023-03-23T12:31:46;18.40;59.80
19214;DHT22;9741;51.020;5.304;2023-03-23T12:34:22;18.50;59.80
19214;DHT22;9741;51.020;5.304;2023-03-23T12:37:16;18.60;59.60
19214;DHT22;9741;51.020;5.304;2023-03-23T12:40:22;18.60;59.50
19214;DHT22;9741;51.020;5.304;2023-03-23T12:43:15;18.70;59.50
19214;DHT22;9741;51.020;5.304;2023-03-23T12:46:00;18.70;59.10
19214;DHT22;9741;51.020;5.304;2023-03-23T12:48:35;18.60;58.70
19214;DHT22;9741;51.020;5.304;2023-03-23T12:51:18;18.40;58.40
19214;DHT22;9741;51.020;5.304;2023-03-23T12:53:54;18.20;58.40
19214;DHT22;9741;51.020;5.304;2023-03-23T12:56:28;18.00;58.70
19214;DHT22;9741;51.020;5.304;2023-03-23T12:59:06;17.70;58.70
19214;DHT22;9741;51.020;5.304;2023-03-23T13:01:43;17.60;59.20
19214;DHT22;9741;51.020;5.304;2023-03-23T13:04:15;17.80;59.50
19214;DHT22;9741;51.020;5.304;2023-03-23T13:06:46;17.70;59.30
19214;DHT22;9741;51.020;5.304;2023-03-23T13:09:19;17.60;59.10
19214;DHT22;9741;51.020;5.304;2023-03-23T13:11:50;17.50;59.20
19214;DHT22;9741;51.020;5.304;2023-03-23T13:14:52;17.40;59.50
19214;DHT22;9741;51.020;5.304;2023-03-23T13:17:34;17.30;59.70
19214;DHT22;9741;51.020;5.304;2023-03-23T13:23:13;17.40;59.70
19214;DHT22;9741;51.020;5.304;2023-03-23T13:25:49;17.60;59.70
19214;DHT22;9741;51.020;5.304;2023-03-23T13:28:32;17.60;59.20
19214;DHT22;9741;51.020;5.304;2023-03-23T13:31:02;17.70;58.90
19214;DHT22;9741;51.020;5.304;2023-03-23T13:33:34;17.70;58.70
19214;DHT22;9741;51.020;5.304;2023-03-23T13:36:11;17.70;58.60
19214;DHT22;9741;51.020;5.304;2023-03-23T13:38:50;17.60;58.50
19214;DHT22;9741;51.020;5.304;2023-03-23T13:41:23;17.50;58.70
19214;DHT22;9741;51.020;5.304;2023-03-23T13:44:21;17.50;58.90
19214;DHT22;9741;51.020;5.304;2023-03-23T13:46:56;17.20;58.50
19214;DHT22;9741;51.020;5.304;2023-03-23T13:49:25;17.00;59.10
19214;DHT22;9741;51.020;5.304;2023-03-23T13:52:16;17.00;59.70
19214;DHT22;9741;51.020;5.304;2023-03-23T13:54:52;17.00;59.90
19214;DHT22;9741;51.020;5.304;2023-03-23T13:57:34;17.10;60.10
19214;DHT22;9741;51.020;5.304;2023-03-23T14:00:22;17.20;60.10
19214;DHT22;9741;51.020;5.304;2023-03-23T14:02:57;17.20;60.10
19214;DHT22;9741;51.020;5.304;2023-03-23T14:05:31;17.10;60.10
19214;DHT22;9741;51.020;5.304;2023-03-23T14:08:02;17.10;60.20
19214;DHT22;9741;51.020;5.304;2023-03-23T14:10:40;17.00;60.30
19214;DHT22;9741;51.020;5.304;2023-03-23T14:13:17;17.00;60.50
19214;DHT22;9741;51.020;5.304;2023-03-23T14:15:58;17.00;60.60
19214;DHT22;9741;51.020;5.304;2023-03-23T14:18:31;17.00;60.60
19214;DHT22;9741;51.020;5.304;2023-03-23T14:21:01;16.90;60.50
19214;DHT22;9741;51.020;5.304;2023-03-23T14:23:33;16.90;60.50
19214;DHT22;9741;51.020;5.304;2023-03-23T14:26:08;17.10;60.80
19214;DHT22;9741;51.020;5.304;2023-03-23T14:28:44;17.30;60.70
19214;DHT22;9741;51.020;5.304;2023-03-23T14:31:18;17.50;60.50
19214;DHT22;9741;51.020;5.304;2023-03-23T14:33:47;17.60;60.10
19214;DHT22;9741;51.020;5.304;2023-03-23T14:36:20;17.60;60.00
19214;DHT22;9741;51.020;5.304;2023-03-23T14:38:54;17.50;59.80
19214;DHT22;9741;51.020;5.304;2023-03-23T14:41:30;17.30;59.70
19214;DHT22;9741;51.020;5.304;2023-03-23T14:44:01;17.20;59.70
19214;DHT22;9741;51.020;5.304;2023-03-23T14:46:38;17.20;59.80
19214;DHT22;9741;51.020;5.304;2023-03-23T14:49:06;17.30;60.00
19214;DHT22;9741;51.020;5.304;2023-03-23T14:51:37;17.40;59.90
19214;DHT22;9741;51.020;5.304;2023-03-23T14:54:09;17.60;60.00
19214;DHT22;9741;51.020;5.304;2023-03-23T14:56:41;17.70;59.60
19214;DHT22;9741;51.020;5.304;2023-03-23T14:59:10;17.70;59.30
19214;DHT22;9741;51.020;5.304;2023-03-23T15:01:38;17.80;59.10
19214;DHT22;9741;51.020;5.304;2023-03-23T15:04:13;17.80;58.70
19214;DHT22;9741;51.020;5.304;2023-03-23T15:06:48;17.80;58.40
19214;DHT22;9741;51.020;5.304;2023-03-23T15:09:18;17.70;58.10
19214;DHT22;9741;51.020;5.304;2023-03-23T15:11:55;17.60;58.00
19214;DHT22;9741;51.020;5.304;2023-03-23T15:14:26;17.60;57.90
19214;DHT22;9741;51.020;5.304;2023-03-23T15:16:55;17.60;57.70
19214;DHT22;9741;51.020;5.304;2023-03-23T15:19:25;17.60;57.60
19214;DHT22;9741;51.020;5.304;2023-03-23T15:21:55;17.60;57.60
19214;DHT22;9741;51.020;5.304;2023-03-23T15:24:32;17.50;57.60
19214;DHT22;9741;51.020;5.304;2023-03-23T15:27:39;17.50;57.60
19214;DHT22;9741;51.020;5.304;2023-03-23T15:30:18;17.40;57.70
19214;DHT22;9741;51.020;5.304;2023-03-23T15:33:03;17.30;57.70
19214;DHT22;9741;51.020;5.304;2023-03-23T15:35:35;17.20;57.80
19214;DHT22;9741;51.020;5.304;2023-03-23T15:38:05;17.10;58.00
19214;DHT22;9741;51.020;5.304;2023-03-23T15:40:35;17.00;58.20
19214;DHT22;9741;51.020;5.304;2023-03-23T15:43:16;16.90;58.30
19214;DHT22;9741;51.020;5.304;2023-03-23T15:45:57;16.90;58.60
19214;DHT22;9741;51.020;5.304;2023-03-23T15:48:30;16.80;58.90
19214;DHT22;9741;51.020;5.304;2023-03-23T15:50:59;16.80;59.10
19214;DHT22;9741;51.020;5.304;2023-03-23T15:53:33;16.80;59.20
19214;DHT22;9741;51.020;5.304;2023-03-23T15:56:04;16.80;59.30
19214;DHT22;9741;51.020;5.304;2023-03-23T15:58:35;16.80;59.50
19214;DHT22;9741;51.020;5.304;2023-03-23T16:01:06;16.90;59.50
19214;DHT22;9741;51.020;5.304;2023-03-23T16:03:37;17.00;59.60
19214;DHT22;9741;51.020;5.304;2023-03-23T16:06:11;17.00;59.50
19214;DHT22;9741;51.020;5.304;2023-03-23T16:08:40;17.10;59.70
19214;DHT22;9741;51.020;5.304;2023-03-23T16:11:10;17.10;59.40
19214;DHT22;9741;51.020;5.304;2023-03-23T16:13:42;17.00;59.10
19214;DHT22;9741;51.020;5.304;2023-03-23T16:16:17;16.90;59.00
19214;DHT22;9741;51.020;5.304;2023-03-23T16:18:47;16.90;59.00
19214;DHT22;9741;51.020;5.304;2023-03-23T16:21:17;16.80;58.90
19214;DHT22;9741;51.020;5.304;2023-03-23T16:23:44;16.80;58.90
19214;DHT22;9741;51.020;5.304;2023-03-23T16:26:13;16.90;58.90
19214;DHT22;9741;51.020;5.304;2023-03-23T16:28:43;16.90;58.70